FLLK1: Fall River Lake

Data processed at Fri Jan 05 2018 23:02


All information presented herein is the property of the government of the United States of America and may be revised or deleted at any time without prior notice.
Dissemination of this information without the expressed written consent of the Public Affairs Office, Tulsa District U.S. Army Corps of Engineers is strictly prohibited.
These data are gathered electronically and, as presented, have not undergone any form of quality control. These data are not guaranteed to be valid or correct.
Go to home page.
Go to station list.

Upstream stations:

Downstream station:
Previous Day
Next Day
Current Day
    
SHEF ID:       FLLK1     Fall River Lake
STATION TYPE:  RESERVOIR
Normal Pool:  Bottom =   940.00, Top =   948.50

               PRECIP ELEVATION   STORAGE    INFLOW   RELEASE  AIR-TEMP  WIND-DIRWIND-SPEED REL-HUMID SOLAR-RAD   VOLTAGE  BAT-LOAD
                   in        ft     ac-ft       cfs       cfs         F       deg       mph         %      W/m2      volt      volt
              Ccp-Rev   Ccp-Rev   Ccp-Rev  Regi-Rev  Regi-Rev   Ccp-Rev   Ccp-Rev   Ccp-Rev   Ccp-Rev   Ccp-Rev   Ccp-Rev   Ccp-Rev
(US/Central)
01/03 00:00      0.00    948.00     19623      1706         3     16.23    227.00      7.70     48.64      0.00     12.71     12.57
01/03 01:00      0.00    948.00     19623      1499         3     17.38    230.30      7.10     47.30      0.00     12.67     12.57
01/03 02:00      0.00    948.29     20242      1500         3     19.26    243.80      6.60     44.28      0.00     12.63     12.49
01/03 03:00      0.00    948.37     20412      1500         3     17.80    250.60      4.90     47.60      0.00     12.60     12.41
01/03 04:00      0.00    948.26     20178      1655         3     15.49    243.50      2.30     54.40      0.00     12.56     12.41
01/03 05:00      0.00    948.01     19644       160         3     16.16    268.10      3.70     54.83      0.00     12.54     12.41
01/03 06:00      0.00    948.21     20071       159         3     17.29    347.40      4.50     58.21      0.00     12.52     12.33
01/03 07:00      0.00    948.35     20370       158         3     18.27      0.00      7.00     60.97      0.00     12.51     12.33
01/03 08:00      0.00    948.34     20348       158         3     18.46    353.40      8.00     64.21      0.00     12.52     12.33
01/03 09:00      0.00    948.33     20327         3         3     21.25    336.80      7.70     64.93     28.70     12.85     12.33
01/03 10:00      0.00    948.32     20306         0         3     24.53     14.90     13.10     65.46    208.90     13.95     12.65
01/03 11:00      0.00    948.28     20220         0         3     26.38     38.80     15.70     62.08    416.70     13.60     14.00
01/03 12:00      0.00    948.27     20199         0         3     27.61     31.50     14.80     58.92    492.00     13.56     13.84
01/03 13:00      0.00    948.32     20306         4         3     29.08     36.20     14.80     55.54    507.00     14.24     13.68
01/03 14:00      0.00    948.26     20178         8         3     30.06     35.30     12.90     52.16    462.00     13.71     13.68
01/03 15:00      0.00    948.19     20028         8         3     30.61     32.40     12.20     49.60    363.10     13.63     14.00
01/03 16:00      0.00    948.30     20263         8         3     30.61     36.80     10.40     48.83    222.80     14.08     13.53
01/03 17:00      0.00    948.34     20348        26         3     30.13     28.50      8.60     51.23     64.80     13.20     13.44
01/03 18:00      0.00    948.30     20263       109         3     28.18     27.20      6.60     59.85      0.00     13.00     13.05
01/03 19:00      0.00    948.33     20327       160         3     25.95     27.50      4.40     59.79      0.00     12.95     12.81
01/03 20:00      0.00    948.19     20028       170         3     23.94     24.50      3.90     63.16      0.00     12.91     12.81
01/03 21:00      0.00    948.35     20370       170         3     22.59     33.70      3.50     64.48      0.00     12.87     12.73
01/03 22:00      0.00    948.01     19644       151         3     21.38     44.50      3.50     66.03      0.00     12.84     12.73
01/03 23:00      0.00    948.29     20242        65         3     19.65     47.80      3.90     67.14      0.00     12.81     12.65